Time;durP1;ratioP1;P1;durP2;ratioP2;P2;SDS_P1;SDS_P2;PMS_P1;PMS_P2;Temp;Humidity;BMP_temperature;BMP_pressure;BME280_temperature;BME280_humidity;BME280_pressure;Samples;Min_cycle;Max_cycle;Signal;HPM_P1;HPM_P2
2022/08/22 00:00:10;;;;;;;1.27;1.23;;;31.80;53.90;;;;;;5135882;27;20578;-63
2022/08/22 00:02:56;;;;;;;1.13;1.13;;;31.70;54.20;;;;;;5142424;27;20464;-62
2022/08/22 00:06:03;;;;;;;1.53;1.43;;;31.70;54.50;;;;;;5130793;27;20497;-62
2022/08/22 00:08:42;;;;;;;1.43;1.40;;;31.70;53.80;;;;;;5140971;27;20457;-62
2022/08/22 00:11:21;;;;;;;1.63;1.53;;;31.60;53.90;;;;;;5124499;27;20463;-62
2022/08/22 00:14:00;;;;;;;1.57;1.47;;;31.40;54.20;;;;;;5137731;27;20448;-62
2022/08/22 00:16:39;;;;;;;1.60;1.50;;;31.30;55.70;;;;;;5144365;27;20456;-62
2022/08/22 00:19:18;;;;;;;2.27;1.50;;;31.20;56.00;;;;;;5137776;27;20469;-62
2022/08/22 00:21:56;;;;;;;1.60;1.50;;;31.10;56.60;;;;;;5123739;28;20824;-62
2022/08/22 00:24:34;;;;;;;1.27;1.27;;;30.90;57.80;;;;;;5122280;27;20968;-62
2022/08/22 00:27:15;;;;;;;1.40;1.30;;;30.80;60.20;;;;;;5119615;27;20461;-62
2022/08/22 00:29:52;;;;;;;1.40;1.30;;;30.80;57.80;;;;;;5124737;27;20480;-62
2022/08/22 00:32:30;;;;;;;1.13;1.03;;;30.80;57.20;;;;;;5118652;28;20456;-62
2022/08/22 00:35:05;;;;;;;1.20;1.00;;;30.80;57.50;;;;;;5122462;27;20467;-62
2022/08/22 00:37:42;;;;;;;1.37;1.30;;;30.90;56.40;;;;;;5122541;27;20471;-62
2022/08/22 00:40:31;;;;;;;1.27;1.17;;;31.00;55.50;;;;;;5128746;27;20491;-62
2022/08/22 00:43:29;;;;;;;1.33;1.27;;;31.00;56.10;;;;;;5123916;27;20443;-63
2022/08/22 00:46:24;;;;;;;1.43;1.27;;;31.00;55.30;;;;;;5109661;28;20471;-63
2022/08/22 00:49:30;;;;;;;1.20;1.20;;;30.80;57.50;;;;;;5120587;27;20468;-62
2022/08/22 00:52:36;;;;;;;1.70;1.60;;;30.70;57.20;;;;;;5115159;27;20469;-63
2022/08/22 00:55:30;;;;;;;1.63;1.53;;;30.70;59.10;;;;;;5110961;27;20459;-63
2022/08/22 00:58:37;;;;;;;3.90;2.33;;;30.50;58.00;;;;;;5112346;27;20533;-63
2022/08/22 01:01:12;;;;;;;1.80;1.70;;;30.40;59.00;;;;;;5108002;27;20490;-62
2022/08/22 01:04:06;;;;;;;1.93;1.80;;;30.40;59.30;;;;;;5123832;27;20439;-62
2022/08/22 01:06:48;;;;;;;1.70;1.60;;;30.40;60.00;;;;;;5123585;27;20490;-61
2022/08/22 01:09:31;;;;;;;1.83;1.73;;;30.40;60.10;;;;;;5131047;27;20522;-62
2022/08/22 01:12:19;;;;;;;1.80;1.70;;;30.40;61.30;;;;;;5108060;28;20446;-62
2022/08/22 01:14:54;;;;;;;2.10;2.00;;;30.40;62.70;;;;;;5133970;27;20467;-62
2022/08/22 01:17:58;;;;;;;1.80;1.70;;;30.50;63.40;;;;;;5120648;27;20819;-62
2022/08/22 01:21:12;;;;;;;1.60;1.50;;;30.60;62.50;;;;;;5112854;27;20506;-62
2022/08/22 01:24:22;;;;;;;1.77;1.67;;;30.70;60.90;;;;;;5083348;27;20441;-63
2022/08/22 01:27:40;;;;;;;1.67;1.57;;;30.70;61.40;;;;;;5114502;27;20574;-63
2022/08/22 01:30:31;;;;;;;1.50;1.40;;;30.70;61.40;;;;;;5113129;27;20469;-64
2022/08/22 01:34:00;;;;;;;1.50;1.40;;;30.70;61.10;;;;;;5102818;27;20461;-66
2022/08/22 01:37:04;;;;;;;1.93;1.20;;;30.60;59.10;;;;;;5110604;27;20527;-64
2022/08/22 01:39:53;;;;;;;1.40;1.30;;;30.40;60.10;;;;;;5099512;27;20476;-66
2022/08/22 01:42:53;;;;;;;1.27;1.17;;;30.20;61.80;;;;;;5131921;27;20477;-63
2022/08/22 01:45:48;;;;;;;1.60;1.50;;;30.00;63.30;;;;;;5120924;27;20478;-66
2022/08/22 01:48:24;;;;;;;2.40;1.60;;;29.60;67.50;;;;;;5121008;28;20466;-64
2022/08/22 01:51:01;;;;;;;1.37;1.27;;;29.30;69.20;;;;;;5121915;27;20582;-65
2022/08/22 01:53:45;;;;;;;1.73;1.63;;;29.10;72.30;;;;;;5126522;27;20499;-63
2022/08/22 01:56:20;;;;;;;2.20;2.10;;;29.10;74.40;;;;;;5126221;27;20456;-62
2022/08/22 01:58:59;;;;;;;2.23;2.07;;;28.90;75.40;;;;;;5131326;27;20448;-62
2022/08/22 02:01:44;;;;;;;2.20;2.03;;;28.90;75.60;;;;;;5119289;28;20597;-62
2022/08/22 02:04:21;;;;;;;2.37;2.27;;;29.00;72.80;;;;;;5124912;27;20453;-62
2022/08/22 02:07:03;;;;;;;2.07;1.97;;;29.10;72.60;;;;;;5110365;28;20901;-62
2022/08/22 02:09:44;;;;;;;2.20;2.00;;;29.10;69.00;;;;;;5130887;28;20468;-62
2022/08/22 02:12:30;;;;;;;2.57;2.37;;;29.10;69.40;;;;;;5120736;28;20732;-62
2022/08/22 02:15:13;;;;;;;3.40;2.63;;;29.00;69.90;;;;;;5128695;28;20470;-62
2022/08/22 02:18:05;;;;;;;3.20;3.00;;;28.80;72.00;;;;;;5121430;28;20463;-62
2022/08/22 02:20:40;;;;;;;2.60;2.40;;;28.70;72.80;;;;;;5120726;28;20508;-62
2022/08/22 02:23:25;;;;;;;3.00;2.80;;;28.50;75.40;;;;;;5105515;28;20482;-62
2022/08/22 02:26:05;;;;;;;3.40;3.10;;;28.40;75.50;;;;;;5139324;28;20771;-63
2022/08/22 02:28:44;;;;;;;2.03;1.83;;;28.30;76.50;;;;;;5115258;28;20472;-62
2022/08/22 02:31:38;;;;;;;2.30;2.10;;;28.30;76.70;;;;;;5103523;28;20469;-64
2022/08/22 02:34:39;;;;;;;2.93;2.73;;;28.10;77.40;;;;;;5101899;28;20829;-63
2022/08/22 02:37:15;;;;;;;2.30;2.10;;;27.90;78.40;;;;;;5125693;28;20522;-63
2022/08/22 02:39:53;;;;;;;2.10;2.00;;;27.90;77.50;;;;;;5115286;28;20469;-63
2022/08/22 02:42:33;;;;;;;2.20;2.00;;;27.80;76.50;;;;;;5116006;28;20980;-64
2022/08/22 02:45:22;;;;;;;1.97;1.87;;;27.80;76.30;;;;;;5116656;28;20466;-63
2022/08/22 02:47:59;;;;;;;1.60;1.50;;;27.60;77.20;;;;;;5117963;28;20484;-65
2022/08/22 02:50:39;;;;;;;1.77;1.67;;;27.40;79.00;;;;;;5120021;28;20460;-64
2022/08/22 02:53:24;;;;;;;1.90;1.80;;;27.30;77.30;;;;;;5125186;28;20911;-63
2022/08/22 02:56:02;;;;;;;1.83;1.73;;;27.20;77.10;;;;;;5118795;28;20449;-63
2022/08/22 02:58:43;;;;;;;1.90;1.80;;;27.10;77.10;;;;;;5123510;28;20453;-64
2022/08/22 03:01:39;;;;;;;1.53;1.43;;;27.10;76.30;;;;;;5115431;28;20488;-63
2022/08/22 03:04:27;;;;;;;2.07;1.90;;;27.00;77.70;;;;;;5091360;28;20479;-62
2022/08/22 03:07:08;;;;;;;1.97;1.87;;;26.80;78.10;;;;;;5131629;28;20490;-63
2022/08/22 03:09:44;;;;;;;1.80;1.70;;;26.80;78.60;;;;;;5115791;28;20465;-63
2022/08/22 03:12:25;;;;;;;1.90;1.80;;;26.70;79.90;;;;;;5122763;27;20507;-62
2022/08/22 03:15:02;;;;;;;1.80;1.70;;;26.70;80.00;;;;;;5114458;28;20449;-63
2022/08/22 03:17:39;;;;;;;1.87;1.77;;;26.60;81.30;;;;;;5117654;27;20448;-63
2022/08/22 03:20:14;;;;;;;1.80;1.70;;;26.60;81.60;;;;;;5126267;27;20480;-63
2022/08/22 03:22:52;;;;;;;2.23;2.00;;;26.60;81.90;;;;;;5131496;27;20529;-62
2022/08/22 03:25:31;;;;;;;1.60;1.50;;;26.60;82.70;;;;;;5115282;27;20461;-62
2022/08/22 03:28:10;;;;;;;1.93;1.83;;;26.50;82.30;;;;;;5118828;27;20475;-62
2022/08/22 03:30:45;;;;;;;2.07;1.90;;;26.50;82.70;;;;;;5131471;27;20479;-64
2022/08/22 03:33:20;;;;;;;2.00;1.80;;;26.40;83.80;;;;;;5118433;28;20458;-66
2022/08/22 03:36:04;;;;;;;1.50;1.40;;;26.30;83.60;;;;;;5124317;27;20442;-65
2022/08/22 03:38:53;;;;;;;1.97;1.87;;;26.20;83.50;;;;;;5115977;27;20445;-65
2022/08/22 03:41:51;;;;;;;1.83;1.50;;;26.00;84.20;;;;;;5122927;27;20579;-64
2022/08/22 03:44:58;;;;;;;1.87;1.77;;;25.90;83.80;;;;;;5112577;27;20466;-63
2022/08/22 03:48:08;;;;;;;1.67;1.57;;;25.70;85.90;;;;;;5122522;27;20907;-63
2022/08/22 03:51:04;;;;;;;2.13;1.53;;;25.60;84.20;;;;;;5115073;27;20435;-63
2022/08/22 03:54:07;;;;;;;1.37;1.27;;;25.40;82.80;;;;;;5110701;27;20463;-63
2022/08/22 03:57:10;;;;;;;1.03;0.97;;;25.30;80.80;;;;;;5110399;27;20531;-64
2022/08/22 04:00:00;;;;;;;1.23;1.13;;;25.30;80.20;;;;;;5119449;27;20468;-64
2022/08/22 04:03:02;;;;;;;1.33;1.23;;;25.30;81.00;;;;;;5123066;27;20498;-62
2022/08/22 04:05:58;;;;;;;1.30;1.20;;;25.20;81.10;;;;;;5117289;27;20504;-64
2022/08/22 04:09:02;;;;;;;1.70;1.60;;;25.10;81.20;;;;;;5117710;27;20467;-64
2022/08/22 04:12:02;;;;;;;1.30;1.20;;;25.10;82.90;;;;;;5128960;27;20515;-63
2022/08/22 04:14:58;;;;;;;1.43;1.33;;;25.10;82.60;;;;;;5124549;27;20460;-64
2022/08/22 04:17:52;;;;;;;1.10;1.10;;;25.00;82.90;;;;;;5123572;28;20485;-63
2022/08/22 04:20:58;;;;;;;1.20;1.10;;;24.90;82.80;;;;;;5122517;27;20455;-64
2022/08/22 04:23:58;;;;;;;1.17;1.10;;;24.80;82.30;;;;;;5088254;27;20451;-64
2022/08/22 04:26:41;;;;;;;1.40;1.27;;;24.60;82.80;;;;;;5121972;27;20581;-63
2022/08/22 04:29:20;;;;;;;2.30;1.40;;;24.50;83.00;;;;;;5118871;27;20472;-63
2022/08/22 04:32:00;;;;;;;1.40;1.30;;;24.40;83.20;;;;;;5119591;27;20476;-63
2022/08/22 04:34:38;;;;;;;1.00;0.93;;;24.30;82.80;;;;;;5123313;27;20463;-63
2022/08/22 04:37:15;;;;;;;1.13;1.00;;;24.30;80.50;;;;;;5122797;27;20492;-63
2022/08/22 04:39:52;;;;;;;0.90;0.80;;;24.20;79.10;;;;;;5118306;28;20458;-63
2022/08/22 04:42:32;;;;;;;1.10;1.00;;;24.20;79.20;;;;;;5126785;27;20499;-62
2022/08/22 04:45:09;;;;;;;1.10;1.00;;;24.20;77.50;;;;;;5144270;27;20437;-63
2022/08/22 04:47:46;;;;;;;0.93;0.93;;;24.20;77.10;;;;;;5125227;27;20913;-63
2022/08/22 04:50:26;;;;;;;1.30;1.20;;;24.20;76.90;;;;;;5122348;27;20449;-63
2022/08/22 04:53:31;;;;;;;2.40;0.90;;;24.10;78.00;;;;;;5122629;27;20449;-63
2022/08/22 04:56:11;;;;;;;1.00;0.90;;;24.10;77.50;;;;;;5098861;27;20454;-63
2022/08/22 04:58:47;;;;;;;0.83;0.83;;;24.00;78.10;;;;;;5138423;27;20455;-62
2022/08/22 05:01:19;;;;;;;0.90;0.87;;;23.90;79.50;;;;;;5108245;27;20786;-63
2022/08/22 05:03:57;;;;;;;1.10;1.00;;;23.80;80.80;;;;;;5122289;27;20457;-63
2022/08/22 05:06:30;;;;;;;1.30;1.17;;;23.80;79.90;;;;;;5116105;27;20482;-63
2022/08/22 05:09:06;;;;;;;1.10;1.00;;;23.70;79.80;;;;;;5123500;28;20464;-63
2022/08/22 05:11:43;;;;;;;0.80;0.80;;;23.70;80.50;;;;;;5119558;27;20510;-63
2022/08/22 05:14:20;;;;;;;1.03;0.93;;;23.60;83.00;;;;;;5127639;27;20959;-63
2022/08/22 05:16:54;;;;;;;0.90;0.90;;;23.50;82.10;;;;;;5108944;28;20458;-63
2022/08/22 05:19:33;;;;;;;1.00;0.90;;;23.50;83.20;;;;;;5124117;28;20441;-62
2022/08/22 05:22:07;;;;;;;0.90;0.90;;;23.50;82.40;;;;;;5122498;27;20553;-62
2022/08/22 05:24:42;;;;;;;0.90;0.90;;;23.40;83.70;;;;;;5123033;27;20446;-62
2022/08/22 05:27:16;;;;;;;0.93;0.93;;;23.40;83.50;;;;;;5130228;27;20459;-63
2022/08/22 05:29:50;;;;;;;0.63;0.63;;;23.30;82.90;;;;;;5124919;27;20461;-62
2022/08/22 05:32:26;;;;;;;1.00;1.00;;;23.20;84.40;;;;;;5125845;27;20453;-62
2022/08/22 05:35:02;;;;;;;0.67;0.67;;;23.20;85.50;;;;;;5142562;27;20577;-63
2022/08/22 05:37:38;;;;;;;1.07;0.97;;;23.10;83.90;;;;;;5130471;27;20449;-62
2022/08/22 05:40:18;;;;;;;0.70;0.70;;;23.10;85.80;;;;;;5119866;27;20462;-63
2022/08/22 05:42:49;;;;;;;1.10;1.00;;;23.10;87.00;;;;;;5130968;27;20517;-63
2022/08/22 05:45:21;;;;;;;3.10;1.00;;;23.00;87.40;;;;;;5122452;27;20474;-62
2022/08/22 05:47:56;;;;;;;3.27;0.90;;;22.90;87.80;;;;;;5121584;27;21014;-63
2022/08/22 05:50:36;;;;;;;1.07;1.00;;;22.80;89.00;;;;;;5115925;28;20508;-62
2022/08/22 05:53:11;;;;;;;0.87;0.87;;;22.70;90.30;;;;;;5129762;27;20551;-63
2022/08/22 05:55:53;;;;;;;1.50;1.40;;;22.70;90.20;;;;;;5132525;27;20750;-63
2022/08/22 05:58:45;;;;;;;0.83;0.83;;;22.60;90.10;;;;;;5121057;27;20456;-62
2022/08/22 06:01:30;;;;;;;1.00;1.00;;;22.60;90.90;;;;;;5128045;27;20457;-62
2022/08/22 06:04:08;;;;;;;0.90;0.90;;;22.60;90.20;;;;;;5122390;28;20511;-63
2022/08/22 06:06:45;;;;;;;1.10;1.00;;;22.50;90.00;;;;;;5111133;28;20493;-62
2022/08/22 06:09:23;;;;;;;0.90;0.90;;;22.50;90.30;;;;;;5123854;28;20457;-62
2022/08/22 06:12:11;;;;;;;1.10;1.10;;;22.50;88.20;;;;;;5116307;28;20569;-62
2022/08/22 06:15:00;;;;;;;0.77;0.77;;;22.40;89.50;;;;;;5120027;28;20484;-62
2022/08/22 06:17:45;;;;;;;1.00;0.90;;;22.40;90.70;;;;;;5108704;28;20449;-63
2022/08/22 06:20:20;;;;;;;1.10;1.00;;;22.40;91.40;;;;;;5117261;28;20463;-63
2022/08/22 06:22:56;;;;;;;1.00;0.90;;;22.30;90.90;;;;;;5130031;28;20486;-62
2022/08/22 06:25:31;;;;;;;0.80;0.80;;;22.30;90.40;;;;;;5128652;27;20549;-62
2022/08/22 06:28:06;;;;;;;0.70;0.70;;;22.30;91.30;;;;;;5123485;27;20465;-63
2022/08/22 06:30:39;;;;;;;1.20;0.90;;;22.20;92.10;;;;;;5124199;28;20513;-63
2022/08/22 06:33:12;;;;;;;1.33;1.10;;;22.10;92.20;;;;;;5128018;28;20465;-63
2022/08/22 06:38:57;;;;;;;3.00;1.10;;;22.10;92.70;;;;;;5116654;28;20469;-63
2022/08/22 06:41:31;;;;;;;0.80;0.80;;;22.10;93.10;;;;;;5120055;28;20841;-63
2022/08/22 06:44:04;;;;;;;0.70;0.70;;;22.00;93.40;;;;;;5122506;28;20508;-63
2022/08/22 06:46:38;;;;;;;0.90;0.90;;;22.00;94.30;;;;;;5126764;27;20466;-63
2022/08/22 06:49:10;;;;;;;0.90;0.90;;;21.90;94.00;;;;;;5124640;27;20467;-63
2022/08/22 06:51:43;;;;;;;1.43;0.93;;;21.90;94.10;;;;;;5118086;27;20470;-63
2022/08/22 06:54:19;;;;;;;1.20;1.10;;;21.80;94.40;;;;;;5108384;27;20458;-63
2022/08/22 06:56:51;;;;;;;1.00;0.90;;;21.70;94.70;;;;;;5108155;27;20454;-63
2022/08/22 06:59:28;;;;;;;1.40;1.30;;;21.60;95.70;;;;;;5126426;27;20461;-63
2022/08/22 07:02:04;;;;;;;1.00;1.00;;;21.70;95.70;;;;;;5126659;27;20493;-62
2022/08/22 07:04:35;;;;;;;1.13;1.03;;;21.70;96.00;;;;;;5120556;27;20524;-63
2022/08/22 07:07:07;;;;;;;1.10;1.00;;;21.60;96.00;;;;;;5126085;27;20496;-62
2022/08/22 07:09:42;;;;;;;0.80;0.70;;;21.60;96.60;;;;;;5112691;27;20428;-63
2022/08/22 07:12:18;;;;;;;1.00;1.00;;;21.50;97.30;;;;;;5124980;27;20450;-64
2022/08/22 07:14:51;;;;;;;1.73;1.13;;;21.50;97.60;;;;;;5132490;27;20453;-63
2022/08/22 07:17:25;;;;;;;1.30;1.20;;;21.50;97.70;;;;;;5128564;27;20468;-63
2022/08/22 07:20:00;;;;;;;0.93;0.90;;;21.50;97.20;;;;;;5123867;27;20453;-63
2022/08/22 07:22:35;;;;;;;1.10;1.00;;;21.40;97.90;;;;;;5112865;28;20469;-63
2022/08/22 07:25:11;;;;;;;0.97;0.97;;;21.30;97.40;;;;;;5139478;27;20472;-63
2022/08/22 07:27:58;;;;;;;1.00;0.90;;;21.30;98.60;;;;;;5124961;27;20456;-63
2022/08/22 07:30:45;;;;;;;0.90;0.90;;;21.40;98.50;;;;;;5123853;27;20511;-62
2022/08/22 07:33:36;;;;;;;1.03;0.90;;;21.20;98.70;;;;;;5125537;27;20465;-63
2022/08/22 07:36:23;;;;;;;1.20;1.10;;;21.20;99.20;;;;;;5128550;27;20446;-63
2022/08/22 07:39:26;;;;;;;1.30;1.00;;;21.20;98.10;;;;;;5121074;27;20499;-63
2022/08/22 07:42:07;;;;;;;1.10;1.00;;;21.20;98.40;;;;;;5113754;27;20538;-63
2022/08/22 07:44:48;;;;;;;1.20;1.10;;;21.20;99.00;;;;;;5110085;27;20497;-63
2022/08/22 07:47:23;;;;;;;1.13;1.03;;;21.10;99.90;;;;;;5118404;27;20443;-63
2022/08/22 07:49:58;;;;;;;1.43;1.27;;;21.00;99.90;;;;;;5128353;27;20477;-62
2022/08/22 07:52:35;;;;;;;1.27;1.17;;;21.00;99.90;;;;;;5122744;27;20464;-63
2022/08/22 07:55:16;;;;;;;1.50;0.90;;;21.00;99.90;;;;;;5106130;27;20459;-63
2022/08/22 07:57:53;;;;;;;1.07;1.00;;;20.90;99.90;;;;;;5114096;27;20454;-63
2022/08/22 08:00:27;;;;;;;1.20;1.10;;;20.90;99.90;;;;;;5133010;27;20458;-63
2022/08/22 08:03:03;;;;;;;1.10;1.00;;;20.90;99.90;;;;;;5122755;27;20432;-63
2022/08/22 08:05:36;;;;;;;0.90;0.90;;;20.90;99.90;;;;;;5124587;27;20495;-62
2022/08/22 08:08:11;;;;;;;1.70;1.60;;;20.90;99.90;;;;;;5127065;27;20424;-63
2022/08/22 08:10:44;;;;;;;1.30;1.20;;;20.80;99.90;;;;;;5118437;27;20462;-63
2022/08/22 08:13:22;;;;;;;1.00;0.93;;;20.90;99.90;;;;;;5108528;28;20454;-63
2022/08/22 08:15:53;;;;;;;0.90;0.90;;;20.90;99.90;;;;;;5117553;27;20477;-63
2022/08/22 08:18:27;;;;;;;1.23;1.10;;;20.90;99.90;;;;;;5109551;27;20575;-62
2022/08/22 08:21:05;;;;;;;1.60;0.97;;;20.80;99.90;;;;;;5133874;27;20451;-63
2022/08/22 08:23:41;;;;;;;1.30;1.20;;;20.80;99.90;;;;;;5120764;27;20504;-62
2022/08/22 08:26:16;;;;;;;1.40;1.30;;;20.70;99.90;;;;;;5124387;27;20757;-62
2022/08/22 08:28:51;;;;;;;1.03;0.97;;;20.70;99.90;;;;;;5131808;27;20471;-63
2022/08/22 08:31:28;;;;;;;1.37;1.00;;;20.70;99.90;;;;;;5126596;27;20453;-62
2022/08/22 08:34:04;;;;;;;0.87;0.87;;;20.60;99.90;;;;;;5123550;27;20420;-63
2022/08/22 08:36:46;;;;;;;0.90;0.90;;;20.60;99.90;;;;;;5114449;27;20465;-62
2022/08/22 08:39:25;;;;;;;1.20;1.10;;;20.60;99.90;;;;;;5117651;28;20567;-62
2022/08/22 08:43:25;;;;;;;1.10;1.10;;;20.60;99.90;;;;;;5113046;27;20462;-63
2022/08/22 08:45:51;;;;;;;1.20;1.10;;;20.50;99.90;;;;;;5132155;27;20607;-62
2022/08/22 08:48:50;;;;;;;1.00;1.00;;;20.50;99.90;;;;;;5114548;28;20460;-62
2022/08/22 08:51:57;;;;;;;1.40;1.00;;;20.50;99.90;;;;;;5109459;27;20439;-62
2022/08/22 08:54:50;;;;;;;1.13;1.03;;;20.40;99.90;;;;;;5108534;27;20467;-62
2022/08/22 08:57:38;;;;;;;0.97;0.97;;;20.30;99.90;;;;;;5123010;27;20451;-63
2022/08/22 09:00:12;;;;;;;0.80;0.80;;;20.30;99.90;;;;;;5123069;27;20545;-62
2022/08/22 09:03:07;;;;;;;1.30;1.20;;;20.30;99.90;;;;;;5113012;27;20460;-63
2022/08/22 09:06:05;;;;;;;1.30;0.90;;;20.40;99.90;;;;;;5128425;27;20489;-62
2022/08/22 09:08:58;;;;;;;0.90;0.90;;;20.20;99.90;;;;;;5124803;27;20552;-63
2022/08/22 09:11:56;;;;;;;0.70;0.70;;;20.20;99.90;;;;;;5139600;27;20450;-63
2022/08/22 09:14:56;;;;;;;0.83;0.83;;;20.20;99.90;;;;;;5132069;27;20472;-63
2022/08/22 09:18:17;;;;;;;1.10;1.00;;;20.10;99.90;;;;;;5133707;27;20435;-63
2022/08/22 09:21:27;;;;;;;1.07;0.97;;;20.10;99.90;;;;;;5045682;28;20536;-63
2022/08/22 09:24:37;;;;;;;1.10;0.83;;;20.10;99.90;;;;;;5044861;28;20500;-63
2022/08/22 09:27:15;;;;;;;1.20;1.10;;;20.00;99.90;;;;;;5052110;28;20465;-63
2022/08/22 09:29:51;;;;;;;1.13;0.97;;;20.00;99.90;;;;;;5048607;28;20445;-63
2022/08/22 09:32:46;;;;;;;1.33;1.23;;;19.90;99.90;;;;;;5050160;28;20492;-63
2022/08/22 09:35:26;;;;;;;1.47;1.17;;;19.90;99.90;;;;;;5041129;28;20453;-63
2022/08/22 09:38:22;;;;;;;1.10;0.87;;;19.80;99.90;;;;;;5043540;28;20423;-63
2022/08/22 09:41:01;;;;;;;0.97;0.97;;;19.70;99.90;;;;;;5047654;28;20427;-63
2022/08/22 09:43:38;;;;;;;1.20;1.10;;;19.70;99.90;;;;;;5052382;28;20463;-62
2022/08/22 09:46:19;;;;;;;1.53;1.20;;;19.70;99.90;;;;;;5041469;28;20454;-62
2022/08/22 09:49:03;;;;;;;1.97;1.13;;;19.70;99.90;;;;;;5039668;28;20504;-62
2022/08/22 09:51:45;;;;;;;1.20;1.00;;;19.70;99.90;;;;;;5038863;28;20462;-62
2022/08/22 09:54:36;;;;;;;1.27;1.17;;;19.70;99.90;;;;;;5050090;28;20785;-62
2022/08/22 09:57:27;;;;;;;1.13;1.03;;;19.60;99.90;;;;;;5114033;28;20442;-62
2022/08/22 10:00:15;;;;;;;1.00;1.00;;;19.60;99.90;;;;;;5130139;27;20423;-62
2022/08/22 10:03:10;;;;;;;4.17;1.33;;;19.60;99.90;;;;;;5141396;27;20433;-63
2022/08/22 10:05:46;;;;;;;0.80;0.77;;;19.50;99.90;;;;;;5127767;27;20569;-63
2022/08/22 10:08:47;;;;;;;1.73;1.00;;;19.40;99.90;;;;;;5128620;27;20570;-62
2022/08/22 10:11:28;;;;;;;1.37;1.27;;;19.40;99.90;;;;;;5126864;28;20467;-62
2022/08/22 10:14:05;;;;;;;1.10;1.00;;;19.40;99.90;;;;;;5128531;28;20522;-62
2022/08/22 10:16:53;;;;;;;1.13;1.00;;;19.30;99.90;;;;;;5116585;28;20534;-62
2022/08/22 10:19:30;;;;;;;1.27;1.17;;;19.30;99.90;;;;;;5110431;28;20462;-62
2022/08/22 10:22:30;;;;;;;0.97;0.97;;;19.30;99.90;;;;;;5128526;27;20450;-62
2022/08/22 10:25:22;;;;;;;1.20;1.10;;;19.20;99.90;;;;;;5124645;27;20537;-62
2022/08/22 10:28:08;;;;;;;1.30;1.13;;;19.20;99.90;;;;;;5123376;28;20457;-63
2022/08/22 10:30:50;;;;;;;1.43;1.33;;;19.10;99.90;;;;;;5122289;27;20454;-62
2022/08/22 10:33:28;;;;;;;1.43;1.30;;;19.10;99.90;;;;;;5125552;27;20436;-62
2022/08/22 10:36:06;;;;;;;1.20;0.93;;;19.10;99.90;;;;;;5118610;27;20458;-62
2022/08/22 10:38:45;;;;;;;1.20;1.10;;;19.10;99.90;;;;;;5122490;27;20465;-62
2022/08/22 10:41:28;;;;;;;1.53;1.40;;;19.00;99.90;;;;;;5110331;27;20854;-62
2022/08/22 10:44:05;;;;;;;1.20;1.10;;;19.10;99.90;;;;;;5124754;28;20436;-62
2022/08/22 10:46:47;;;;;;;1.43;1.20;;;19.00;99.90;;;;;;5135251;27;20479;-62
2022/08/22 10:49:26;;;;;;;1.50;1.40;;;18.90;99.90;;;;;;5110735;27;20524;-62
2022/08/22 10:52:03;;;;;;;1.30;1.20;;;18.90;99.90;;;;;;5130477;27;20703;-62
2022/08/22 10:54:51;;;;;;;1.40;1.30;;;18.80;99.90;;;;;;5130021;27;20760;-63
2022/08/22 10:57:38;;;;;;;1.30;1.20;;;18.80;99.90;;;;;;5106347;27;20442;-62
2022/08/22 11:00:31;;;;;;;0.90;0.90;;;18.70;99.90;;;;;;5122128;27;20433;-62
2022/08/22 11:03:13;;;;;;;1.20;1.10;;;18.70;99.90;;;;;;5121354;27;20436;-62
2022/08/22 11:05:53;;;;;;;1.00;1.00;;;18.70;99.90;;;;;;5126274;27;21006;-62
2022/08/22 11:08:58;;;;;;;2.43;2.33;;;18.70;99.90;;;;;;5125539;28;20465;-62
2022/08/22 11:11:47;;;;;;;1.40;1.30;;;18.70;99.90;;;;;;5116162;27;20488;-62
2022/08/22 11:14:58;;;;;;;1.30;1.20;;;18.70;99.90;;;;;;5133541;27;20466;-62
2022/08/22 11:18:07;;;;;;;1.43;1.33;;;18.60;99.90;;;;;;5042300;28;20465;-62
2022/08/22 11:20:52;;;;;;;1.77;1.60;;;18.60;99.90;;;;;;5040154;28;20850;-62
2022/08/22 11:23:35;;;;;;;1.30;1.20;;;18.60;99.90;;;;;;5043045;28;20457;-62
2022/08/22 11:26:14;;;;;;;1.30;1.20;;;18.50;99.90;;;;;;5040208;28;20496;-62
2022/08/22 11:29:22;;;;;;;1.40;1.30;;;18.50;99.90;;;;;;5047339;28;20526;-62
2022/08/22 11:32:05;;;;;;;1.60;1.50;;;18.40;99.90;;;;;;5048670;28;20460;-62
2022/08/22 11:34:49;;;;;;;1.60;1.50;;;18.40;99.90;;;;;;5044202;28;20471;-62
2022/08/22 11:37:34;;;;;;;2.20;1.80;;;18.40;99.90;;;;;;5037168;28;20468;-62
2022/08/22 11:40:25;;;;;;;1.10;1.00;;;18.40;99.90;;;;;;5040715;28;20525;-62
2022/08/22 11:43:11;;;;;;;1.20;1.10;;;18.40;99.90;;;;;;5040638;28;20479;-62
2022/08/22 11:45:49;;;;;;;1.80;1.53;;;18.30;99.90;;;;;;5039777;28;20509;-62
2022/08/22 11:48:25;;;;;;;1.20;1.10;;;18.30;99.90;;;;;;5041360;28;20461;-62
2022/08/22 11:51:09;;;;;;;1.40;1.30;;;18.30;99.90;;;;;;5061269;27;20942;-62
2022/08/22 11:53:48;;;;;;;1.20;1.10;;;18.20;99.90;;;;;;5118803;27;20457;-62
2022/08/22 11:56:27;;;;;;;1.53;1.43;;;18.20;99.90;;;;;;5114114;28;20469;-62
2022/08/22 11:59:05;;;;;;;1.27;1.20;;;18.20;99.90;;;;;;5116574;28;20470;-62
2022/08/22 12:01:42;;;;;;;1.50;1.40;;;18.20;99.90;;;;;;5124099;27;20846;-62
2022/08/22 12:04:20;;;;;;;1.30;1.20;;;18.20;99.90;;;;;;5131495;27;20431;-62
2022/08/22 12:07:08;;;;;;;1.60;1.50;;;18.10;99.90;;;;;;5126544;27;20583;-62
2022/08/22 12:09:53;;;;;;;1.30;1.20;;;18.10;99.90;;;;;;5117998;27;20433;-62
2022/08/22 12:12:38;;;;;;;1.50;1.40;;;18.00;99.90;;;;;;5114096;27;20472;-62
2022/08/22 12:15:27;;;;;;;1.20;1.10;;;18.00;99.90;;;;;;5114717;27;20951;-62
2022/08/22 12:18:38;;;;;;;1.50;1.40;;;18.00;99.90;;;;;;5123355;27;20477;-62
2022/08/22 12:21:50;;;;;;;1.30;1.20;;;18.00;99.90;;;;;;5121302;27;20436;-62
2022/08/22 12:24:58;;;;;;;2.37;1.40;;;17.90;99.90;;;;;;5116205;27;20453;-62
2022/08/22 12:28:06;;;;;;;1.20;1.03;;;17.90;99.90;;;;;;5123585;27;20462;-62
2022/08/22 12:30:46;;;;;;;1.50;1.40;;;17.90;99.90;;;;;;5082964;28;20438;-62
2022/08/22 12:33:40;;;;;;;1.53;1.37;;;17.90;99.90;;;;;;5080590;28;20467;-62
2022/08/22 12:36:39;;;;;;;1.40;1.30;;;17.90;99.90;;;;;;5080726;28;20475;-62
2022/08/22 12:39:44;;;;;;;2.10;1.83;;;17.80;99.90;;;;;;5080583;28;20478;-62
2022/08/22 12:42:38;;;;;;;1.37;1.27;;;17.80;99.90;;;;;;5087179;28;20550;-62
2022/08/22 12:45:42;;;;;;;1.27;1.17;;;17.70;99.90;;;;;;5083314;28;20799;-62
2022/08/22 12:48:24;;;;;;;1.30;1.20;;;17.70;99.90;;;;;;5081324;28;20498;-62
2022/08/22 12:51:03;;;;;;;1.53;1.43;;;17.60;99.90;;;;;;5085758;28;20558;-62
2022/08/22 12:54:19;;;;;;;1.53;1.43;;;17.60;99.90;;;;;;5095401;28;20463;-62
2022/08/22 12:56:59;;;;;;;1.73;1.13;;;17.60;99.90;;;;;;5093539;28;20470;-62
2022/08/22 12:59:33;;;;;;;1.40;1.20;;;17.60;99.90;;;;;;5081247;28;20556;-62
2022/08/22 13:02:17;;;;;;;1.40;1.00;;;17.60;99.90;;;;;;5089751;28;20429;-62
2022/08/22 13:04:55;;;;;;;3.63;1.80;;;17.60;99.90;;;;;;5098016;28;20471;-62
2022/08/22 13:07:29;;;;;;;1.50;1.40;;;17.50;99.90;;;;;;5120082;27;20941;-61
2022/08/22 13:10:03;;;;;;;1.67;1.57;;;17.50;99.90;;;;;;5121079;27;20444;-62
2022/08/22 13:12:38;;;;;;;1.37;1.27;;;17.50;99.90;;;;;;5122019;27;20940;-62
2022/08/22 13:15:27;;;;;;;1.97;1.80;;;17.50;99.90;;;;;;5119872;27;20515;-62
2022/08/22 13:18:00;;;;;;;1.70;1.60;;;17.50;99.90;;;;;;5110846;27;20433;-62
2022/08/22 13:20:54;;;;;;;2.87;1.50;;;17.50;99.90;;;;;;5125799;27;20552;-62
2022/08/22 13:23:28;;;;;;;1.90;1.77;;;17.40;99.90;;;;;;5125463;27;20564;-61
2022/08/22 13:26:08;;;;;;;1.77;1.67;;;17.50;99.90;;;;;;5125357;27;20977;-61
2022/08/22 13:28:46;;;;;;;1.10;1.00;;;17.40;99.90;;;;;;5121918;27;20896;-62
2022/08/22 13:31:37;;;;;;;2.03;1.70;;;17.50;99.90;;;;;;5120956;27;20440;-61
2022/08/22 13:34:11;;;;;;;2.30;1.87;;;17.50;99.90;;;;;;5120973;27;20464;-62
2022/08/22 13:36:51;;;;;;;1.57;1.47;;;17.40;99.90;;;;;;5123149;27;20458;-62
2022/08/22 13:39:29;;;;;;;1.93;1.83;;;17.50;99.90;;;;;;5124797;27;20480;-62
2022/08/22 13:42:01;;;;;;;1.20;1.10;;;17.50;99.90;;;;;;5111222;27;20460;-62
2022/08/22 13:44:45;;;;;;;2.10;1.50;;;17.50;99.90;;;;;;5123574;27;20486;-61
2022/08/22 13:47:21;;;;;;;2.53;1.97;;;17.40;99.90;;;;;;5130778;27;20510;-62
2022/08/22 13:49:55;;;;;;;2.00;1.80;;;17.40;99.90;;;;;;5111098;28;20535;-62
2022/08/22 13:52:32;;;;;;;3.83;1.57;;;17.40;99.90;;;;;;5127101;27;20453;-62
2022/08/22 13:55:11;;;;;;;4.20;1.77;;;17.40;99.90;;;;;;5143178;27;20498;-62
2022/08/22 13:57:46;;;;;;;1.63;1.50;;;17.50;99.90;;;;;;5130585;27;20447;-62
2022/08/22 14:00:59;;;;;;;2.03;1.83;;;17.50;99.90;;;;;;5121425;27;20904;-62
2022/08/22 14:03:40;;;;;;;1.43;1.33;;;17.50;99.90;;;;;;5127280;27;20460;-63
2022/08/22 14:06:33;;;;;;;1.90;1.70;;;17.50;99.90;;;;;;5114354;28;20628;-62
2022/08/22 14:09:16;;;;;;;1.50;1.40;;;17.60;99.90;;;;;;5133242;27;20476;-62
2022/08/22 14:12:14;;;;;;;2.33;1.90;;;17.70;99.90;;;;;;5121860;28;20453;-62
2022/08/22 14:14:46;;;;;;;2.13;1.93;;;17.70;99.90;;;;;;5109974;28;20471;-62
2022/08/22 14:17:24;;;;;;;1.63;1.53;;;17.80;99.90;;;;;;5126133;28;21176;-62
2022/08/22 14:20:01;;;;;;;1.80;1.70;;;17.90;99.90;;;;;;5116972;28;20469;-61